Time,TemperatureF,DewpointF,PressureIn,WindDirection,WindDirectionDegrees,WindSpeedMPH,WindSpeedGustMPH,Humidity,HourlyPrecipIn,Conditions,Clouds,dailyrainin,SoftwareType,DateUTC
2013-07-31 00:03:00,44.9,40.4,30.19,NW,325,6.0,6.0,84,0.00,,---,0.00,VWS V14.01,2013-07-31 06:03:00,
2013-07-31 00:08:00,44.9,40.1,30.19,NW,325,1.0,2.0,83,0.00,,---,0.00,VWS V14.01,2013-07-31 06:08:00,
2013-07-31 00:13:00,45.0,40.5,30.19,NW,325,3.0,4.0,84,0.00,,---,0.00,VWS V14.01,2013-07-31 06:13:00,
2013-07-31 00:18:00,45.1,39.9,30.19,NW,325,7.0,7.0,82,0.00,,---,0.00,VWS V14.01,2013-07-31 06:18:00,
2013-07-31 00:23:00,45.0,39.8,30.19,NW,325,8.0,8.0,82,0.00,,---,0.00,VWS V14.01,2013-07-31 06:23:00,
2013-07-31 00:28:00,44.9,40.1,30.19,NW,325,7.0,7.0,83,0.00,,---,0.00,VWS V14.01,2013-07-31 06:28:00,
2013-07-31 00:33:00,44.6,39.8,30.19,NW,324,6.0,6.0,83,0.00,,---,0.00,VWS V14.01,2013-07-31 06:33:00,
2013-07-31 00:38:00,44.5,40.3,30.19,NW,324,3.0,4.0,85,0.00,,---,0.00,VWS V14.01,2013-07-31 06:38:00,
2013-07-31 00:43:00,44.6,40.4,30.20,NW,324,0.0,0.0,85,0.00,,---,0.00,VWS V14.01,2013-07-31 06:43:00,
2013-07-31 00:48:00,44.7,39.9,30.20,NW,324,0.0,0.0,83,0.00,,---,0.00,VWS V14.01,2013-07-31 06:48:00,
2013-07-31 00:53:00,44.6,39.8,30.20,NW,324,0.0,0.0,83,0.00,,---,0.00,VWS V14.01,2013-07-31 06:53:00,
2013-07-31 00:58:00,44.5,39.7,30.20,NW,324,3.0,3.0,83,0.00,,---,0.00,VWS V14.01,2013-07-31 06:58:00,
2013-07-31 01:03:00,44.2,39.7,30.20,NW,324,0.0,0.0,84,0.00,,---,0.00,VWS V14.01,2013-07-31 07:03:00,
2013-07-31 01:08:00,43.9,39.4,30.20,NW,324,2.0,3.0,84,0.00,,---,0.00,VWS V14.01,2013-07-31 07:08:00,
2013-07-31 01:13:00,43.7,39.2,30.20,NW,324,0.0,0.0,84,0.00,,---,0.00,VWS V14.01,2013-07-31 07:13:00,
2013-07-31 01:18:00,43.6,39.1,30.19,NW,324,0.0,0.0,84,0.00,,---,0.00,VWS V14.01,2013-07-31 07:18:00,
2013-07-31 01:23:00,43.4,39.2,30.20,NW,324,5.0,5.0,85,0.00,,---,0.00,VWS V14.01,2013-07-31 07:23:00,
2013-07-31 01:28:00,43.3,39.1,30.20,NW,324,3.0,3.0,85,0.00,,---,0.00,VWS V14.01,2013-07-31 07:28:00,
2013-07-31 01:33:00,43.0,38.8,30.20,NW,324,4.0,4.0,85,0.00,,---,0.00,VWS V14.01,2013-07-31 07:33:00,
2013-07-31 01:38:00,42.8,38.6,30.20,NW,324,2.0,3.0,85,0.00,,---,0.00,VWS V14.01,2013-07-31 07:38:00,
2013-07-31 01:43:00,42.8,38.9,30.20,NW,324,3.0,3.0,86,0.00,,---,0.00,VWS V14.01,2013-07-31 07:43:00,
2013-07-31 01:48:00,42.9,39.3,30.20,NW,324,0.0,0.0,87,0.00,,---,0.00,VWS V14.01,2013-07-31 07:48:00,
2013-07-31 01:53:00,42.9,39.3,30.20,NW,324,2.0,3.0,87,0.00,,---,0.00,VWS V14.01,2013-07-31 07:53:00,
2013-07-31 01:58:00,43.1,39.5,30.20,NW,324,0.0,0.0,87,0.00,,---,0.00,VWS V14.01,2013-07-31 07:58:00,
2013-07-31 02:03:00,43.2,39.3,30.20,NW,324,0.0,0.0,86,0.00,,---,0.00,VWS V14.01,2013-07-31 08:03:00,
2013-07-31 02:08:00,42.9,39.0,30.20,NW,324,4.0,7.0,86,0.00,,---,0.00,VWS V14.01,2013-07-31 08:08:00,
2013-07-31 02:13:00,42.9,39.0,30.20,NW,325,4.0,4.0,86,0.00,,---,0.00,VWS V14.01,2013-07-31 08:13:00,
2013-07-31 02:19:00,42.9,39.0,30.20,NW,325,3.0,3.0,86,0.00,,---,0.00,VWS V14.01,2013-07-31 08:19:00,
2013-07-31 02:24:00,43.0,39.4,30.20,NW,325,0.0,0.0,87,0.00,,---,0.00,VWS V14.01,2013-07-31 08:24:00,
2013-07-31 02:29:00,43.0,39.4,30.20,NW,325,0.0,0.0,87,0.00,,---,0.00,VWS V14.01,2013-07-31 08:29:00,
2013-07-31 02:34:00,42.9,39.3,30.20,NW,325,0.0,0.0,87,0.00,,---,0.00,VWS V14.01,2013-07-31 08:34:00,
2013-07-31 02:39:00,42.7,39.1,30.20,NW,325,4.0,5.0,87,0.00,,---,0.00,VWS V14.01,2013-07-31 08:39:00,
2013-07-31 02:44:00,42.2,38.3,30.20,NW,325,7.0,8.0,86,0.00,,---,0.00,VWS V14.01,2013-07-31 08:44:00,
2013-07-31 02:49:00,41.9,38.0,30.20,NW,325,0.0,1.0,86,0.00,,---,0.00,VWS V14.01,2013-07-31 08:49:00,
2013-07-31 02:54:00,41.6,38.0,30.20,NW,325,0.0,0.0,87,0.00,,---,0.00,VWS V14.01,2013-07-31 08:54:00,
2013-07-31 02:59:00,41.4,38.1,30.20,NW,325,2.0,3.0,88,0.00,,---,0.00,VWS V14.01,2013-07-31 08:59:00,
2013-07-31 03:04:00,41.4,38.4,30.20,NW,325,0.0,0.0,89,0.00,,---,0.00,VWS V14.01,2013-07-31 09:04:00,
2013-07-31 03:09:00,41.4,38.4,30.20,NW,325,0.0,0.0,89,0.00,,---,0.00,VWS V14.01,2013-07-31 09:09:00,
2013-07-31 03:14:00,41.4,38.4,30.20,NW,325,0.0,0.0,89,0.00,,---,0.00,VWS V14.01,2013-07-31 09:14:00,
2013-07-31 03:19:00,41.3,38.3,30.20,NW,325,0.0,0.0,89,0.00,,---,0.00,VWS V14.01,2013-07-31 09:19:00,
2013-07-31 03:24:00,41.2,38.5,30.19,NW,325,0.0,0.0,90,0.00,,---,0.00,VWS V14.01,2013-07-31 09:24:00,
2013-07-31 03:29:00,41.0,38.3,30.19,NW,325,3.0,3.0,90,0.00,,---,0.00,VWS V14.01,2013-07-31 09:29:00,
2013-07-31 03:34:00,40.8,37.8,30.19,NW,325,4.0,4.0,89,0.00,,---,0.00,VWS V14.01,2013-07-31 09:34:00,
2013-07-31 03:39:00,40.8,38.1,30.19,NW,325,0.0,0.0,90,0.00,,---,0.00,VWS V14.01,2013-07-31 09:39:00,
2013-07-31 03:44:00,40.8,38.1,30.19,NW,325,3.0,3.0,90,0.00,,---,0.00,VWS V14.01,2013-07-31 09:44:00,
2013-07-31 03:49:00,40.6,37.6,30.19,NW,325,4.0,4.0,89,0.00,,---,0.00,VWS V14.01,2013-07-31 09:49:00,
2013-07-31 03:54:00,40.4,37.4,30.19,NW,325,5.0,6.0,89,0.00,,---,0.00,VWS V14.01,2013-07-31 09:54:00,
2013-07-31 03:59:00,40.4,37.4,30.19,NW,325,0.0,1.0,89,0.00,,---,0.00,VWS V14.01,2013-07-31 09:59:00,
2013-07-31 04:04:00,40.4,37.7,30.19,NW,325,0.0,0.0,90,0.00,,---,0.00,VWS V14.01,2013-07-31 10:04:00,
2013-07-31 04:09:00,40.5,38.1,30.19,NW,325,0.0,0.0,91,0.00,,---,0.00,VWS V14.01,2013-07-31 10:09:00,
2013-07-31 04:14:00,40.5,38.1,30.19,NW,325,0.0,0.0,91,0.00,,---,0.00,VWS V14.01,2013-07-31 10:14:00,
2013-07-31 04:19:00,40.5,38.1,30.19,NW,325,1.0,1.0,91,0.00,,---,0.00,VWS V14.01,2013-07-31 10:19:00,
2013-07-31 04:24:00,40.4,38.0,30.19,NW,325,0.0,0.0,91,0.00,,---,0.00,VWS V14.01,2013-07-31 10:24:00,
2013-07-31 04:29:00,40.4,38.0,30.19,NW,325,0.0,0.0,91,0.00,,---,0.00,VWS V14.01,2013-07-31 10:29:00,
2013-07-31 04:34:00,40.4,38.0,30.19,NW,325,0.0,0.0,91,0.00,,---,0.00,VWS V14.01,2013-07-31 10:34:00,
2013-07-31 04:39:00,40.3,37.9,30.20,NW,325,0.0,0.0,91,0.00,,---,0.00,VWS V14.01,2013-07-31 10:39:00,
2013-07-31 04:44:00,40.3,38.2,30.20,NW,325,0.0,0.0,92,0.00,,---,0.00,VWS V14.01,2013-07-31 10:44:00,
2013-07-31 04:49:00,40.2,37.8,30.20,NW,325,0.0,0.0,91,0.00,,---,0.00,VWS V14.01,2013-07-31 10:49:00,
2013-07-31 04:54:00,39.9,37.2,30.20,NW,325,0.0,0.0,90,0.00,,---,0.00,VWS V14.01,2013-07-31 10:54:00,
2013-07-31 04:59:00,39.6,37.2,30.20,NW,325,3.0,3.0,91,0.00,,---,0.00,VWS V14.01,2013-07-31 10:59:00,
2013-07-31 05:04:00,39.4,37.0,30.20,NW,325,3.0,3.0,91,0.00,,---,0.00,VWS V14.01,2013-07-31 11:04:00,
2013-07-31 05:09:00,39.2,36.5,30.20,NW,325,4.0,5.0,90,0.00,,---,0.00,VWS V14.01,2013-07-31 11:09:00,
2013-07-31 05:14:00,38.9,36.5,30.21,NW,325,2.0,2.0,91,0.00,,---,0.00,VWS V14.01,2013-07-31 11:14:00,
2013-07-31 05:19:00,38.9,36.5,30.21,NW,325,0.0,0.0,91,0.00,,---,0.00,VWS V14.01,2013-07-31 11:19:00,
2013-07-31 05:24:00,38.9,36.8,30.21,NW,325,0.0,0.0,92,0.00,,---,0.00,VWS V14.01,2013-07-31 11:24:00,
2013-07-31 05:29:00,39.1,37.2,30.21,NW,325,3.0,4.0,93,0.00,,---,0.00,VWS V14.01,2013-07-31 11:29:00,
2013-07-31 05:34:00,39.1,37.2,30.21,NW,325,0.0,0.0,93,0.00,,---,0.00,VWS V14.01,2013-07-31 11:34:00,
2013-07-31 05:39:00,38.8,36.7,30.21,NW,325,0.0,0.0,92,0.00,,---,0.00,VWS V14.01,2013-07-31 11:39:00,
2013-07-31 05:44:00,38.6,36.5,30.21,NW,325,0.0,0.0,92,0.00,,---,0.00,VWS V14.01,2013-07-31 11:44:00,
2013-07-31 05:49:00,38.5,36.4,30.21,NW,325,0.0,0.0,92,0.00,,---,0.00,VWS V14.01,2013-07-31 11:49:00,
2013-07-31 05:54:00,38.5,36.4,30.22,NW,325,0.0,0.0,92,0.00,,---,0.00,VWS V14.01,2013-07-31 11:54:00,
2013-07-31 05:59:00,38.6,36.5,30.22,NW,325,2.0,3.0,92,0.00,,---,0.00,VWS V14.01,2013-07-31 11:59:00,
2013-07-31 06:04:00,38.4,36.3,30.22,NW,325,0.0,0.0,92,0.00,,---,0.00,VWS V14.01,2013-07-31 12:04:00,
2013-07-31 06:09:00,38.6,36.8,30.22,NW,325,3.0,3.0,93,0.00,,---,0.00,VWS V14.01,2013-07-31 12:09:00,
2013-07-31 06:14:00,38.8,37.0,30.22,NW,325,0.0,0.0,93,0.00,,---,0.00,VWS V14.01,2013-07-31 12:14:00,
2013-07-31 06:20:00,38.9,37.0,30.22,NW,325,0.0,0.0,93,0.00,,---,0.00,VWS V14.01,2013-07-31 12:20:00,
2013-07-31 06:25:00,39.0,37.2,30.22,NW,325,0.0,0.0,93,0.00,,---,0.00,VWS V14.01,2013-07-31 12:25:00,
2013-07-31 06:30:00,39.1,37.2,30.23,NW,325,0.0,0.0,93,0.00,,---,0.00,VWS V14.01,2013-07-31 12:30:00,
2013-07-31 06:35:00,39.1,37.2,30.22,NW,325,0.0,0.0,93,0.00,,---,0.00,VWS V14.01,2013-07-31 12:35:00,
2013-07-31 06:40:00,39.1,37.2,30.22,NW,325,0.0,0.0,93,0.00,,---,0.00,VWS V14.01,2013-07-31 12:40:00,
2013-07-31 06:45:00,39.0,37.2,30.23,NW,325,0.0,0.0,93,0.00,,---,0.00,VWS V14.01,2013-07-31 12:45:00,
2013-07-31 06:50:00,38.7,36.8,30.23,NW,325,0.0,0.0,93,0.00,,---,0.00,VWS V14.01,2013-07-31 12:50:00,
2013-07-31 06:55:00,38.6,36.8,30.22,NW,325,0.0,0.0,93,0.00,,---,0.00,VWS V14.01,2013-07-31 12:55:00,
2013-07-31 07:00:00,38.6,36.8,30.22,NW,325,0.0,0.0,93,0.00,,---,0.00,VWS V14.01,2013-07-31 13:00:00,
2013-07-31 07:05:00,38.5,36.7,30.23,NW,325,0.0,0.0,93,0.00,,---,0.00,VWS V14.01,2013-07-31 13:05:00,
2013-07-31 07:10:00,38.5,36.7,30.23,NW,325,0.0,0.0,93,0.00,,---,0.00,VWS V14.01,2013-07-31 13:10:00,
2013-07-31 07:15:00,38.5,36.7,30.23,NW,325,0.0,0.0,93,0.00,,---,0.00,VWS V14.01,2013-07-31 13:15:00,
2013-07-31 07:20:00,38.6,37.0,30.23,NW,325,0.0,0.0,94,0.00,,---,0.00,VWS V14.01,2013-07-31 13:20:00,
2013-07-31 07:25:00,38.6,36.8,30.23,NW,325,0.0,0.0,93,0.00,,---,0.00,VWS V14.01,2013-07-31 13:25:00,
2013-07-31 07:30:00,38.4,36.6,30.24,NW,325,0.0,0.0,93,0.00,,---,0.00,VWS V14.01,2013-07-31 13:30:00,
2013-07-31 07:35:00,38.5,36.9,30.24,NW,325,0.0,0.0,94,0.00,,---,0.00,VWS V14.01,2013-07-31 13:35:00,
2013-07-31 07:40:00,38.7,37.1,30.24,NW,325,0.0,0.0,94,0.00,,---,0.00,VWS V14.01,2013-07-31 13:40:00,
2013-07-31 07:45:00,38.9,37.3,30.24,NW,325,0.0,0.0,94,0.00,,---,0.00,VWS V14.01,2013-07-31 13:45:00,
2013-07-31 07:50:00,38.9,37.3,30.24,NW,325,1.0,2.0,94,0.00,,---,0.00,VWS V14.01,2013-07-31 13:50:00,
2013-07-31 07:55:00,38.7,36.8,30.24,NW,325,0.0,0.0,93,0.00,,---,0.00,VWS V14.01,2013-07-31 13:55:00,
2013-07-31 08:00:00,38.8,37.2,30.24,NW,325,0.0,0.0,94,0.00,,---,0.00,VWS V14.01,2013-07-31 14:00:00,
2013-07-31 08:05:00,38.8,37.2,30.24,NW,325,0.0,0.0,94,0.00,,---,0.00,VWS V14.01,2013-07-31 14:05:00,
2013-07-31 08:10:00,38.9,37.3,30.24,NW,325,0.0,0.0,94,0.00,,---,0.00,VWS V14.01,2013-07-31 14:10:00,
2013-07-31 08:15:00,39.7,38.4,30.25,NW,323,0.0,0.0,95,0.00,,---,0.00,VWS V14.01,2013-07-31 14:15:00,
2013-07-31 08:20:00,41.5,40.2,30.25,NW,323,2.0,2.0,95,0.00,,---,0.00,VWS V14.01,2013-07-31 14:20:00,
2013-07-31 08:25:00,43.4,41.8,30.24,NW,323,0.0,0.0,94,0.00,,---,0.00,VWS V14.01,2013-07-31 14:25:00,
2013-07-31 08:30:00,45.6,43.1,30.24,NW,323,0.0,0.0,91,0.00,,---,0.00,VWS V14.01,2013-07-31 14:30:00,
2013-07-31 08:35:00,47.3,42.4,30.24,NW,323,0.0,0.0,83,0.00,,---,0.00,VWS V14.01,2013-07-31 14:35:00,
2013-07-31 08:40:00,48.9,43.3,30.24,NW,323,0.0,0.0,81,0.00,,---,0.00,VWS V14.01,2013-07-31 14:40:00,
2013-07-31 08:45:00,49.5,43.6,30.24,NW,323,0.0,0.0,80,0.00,,---,0.00,VWS V14.01,2013-07-31 14:45:00,
2013-07-31 08:50:00,50.4,43.1,30.24,NW,323,0.0,0.0,76,0.00,,---,0.00,VWS V14.01,2013-07-31 14:50:00,
2013-07-31 08:55:00,51.3,43.3,30.24,NW,323,0.0,0.0,74,0.00,,---,0.00,VWS V14.01,2013-07-31 14:55:00,
2013-07-31 09:00:00,52.0,42.2,30.24,NW,323,0.0,0.0,69,0.00,,---,0.00,VWS V14.01,2013-07-31 15:00:00,
2013-07-31 09:05:00,52.8,43.7,30.24,NW,323,0.0,0.0,71,0.00,,---,0.00,VWS V14.01,2013-07-31 15:05:00,
2013-07-31 09:10:00,53.3,43.0,30.23,NW,323,0.0,0.0,68,0.00,,---,0.00,VWS V14.01,2013-07-31 15:10:00,
2013-07-31 09:15:00,54.1,44.2,30.23,NW,323,0.0,0.0,69,0.00,,---,0.00,VWS V14.01,2013-07-31 15:15:00,
2013-07-31 09:20:00,55.4,44.6,30.23,NW,323,0.0,0.0,67,0.00,,---,0.00,VWS V14.01,2013-07-31 15:20:00,
2013-07-31 09:25:00,55.7,44.9,30.23,NW,323,3.0,3.0,67,0.00,,---,0.00,VWS V14.01,2013-07-31 15:25:00,
2013-07-31 09:30:00,55.5,43.9,30.23,NW,323,1.0,1.0,65,0.00,,---,0.00,VWS V14.01,2013-07-31 15:30:00,
2013-07-31 09:35:00,56.0,42.8,30.23,NW,323,0.0,1.0,61,0.00,,---,0.00,VWS V14.01,2013-07-31 15:35:00,
2013-07-31 09:40:00,56.6,44.2,30.22,NW,323,0.0,1.0,63,0.00,,---,0.00,VWS V14.01,2013-07-31 15:40:00,
2013-07-31 09:45:00,57.5,43.3,30.22,NW,323,0.0,0.0,59,0.00,,---,0.00,VWS V14.01,2013-07-31 15:45:00,
2013-07-31 09:50:00,58.4,47.1,30.22,NW,323,0.0,0.0,66,0.00,,---,0.00,VWS V14.01,2013-07-31 15:50:00,
2013-07-31 09:56:00,58.5,44.2,30.22,NW,323,0.0,0.0,59,0.00,,---,0.00,VWS V14.01,2013-07-31 15:56:00,
2013-07-31 10:01:00,59.0,44.7,30.22,NW,323,1.0,1.0,59,0.00,,---,0.00,VWS V14.01,2013-07-31 16:01:00,
2013-07-31 10:06:00,59.4,43.2,30.22,NW,323,2.0,3.0,55,0.00,,---,0.00,VWS V14.01,2013-07-31 16:06:00,
2013-07-31 10:11:00,59.7,43.0,30.21,NW,323,1.0,2.0,54,0.00,,---,0.00,VWS V14.01,2013-07-31 16:11:00,
2013-07-31 10:16:00,59.9,44.7,30.21,NW,323,3.0,4.0,57,0.00,,---,0.00,VWS V14.01,2013-07-31 16:16:00,
2013-07-31 10:21:00,60.2,44.5,30.20,NW,323,3.0,3.0,56,0.00,,---,0.00,VWS V14.01,2013-07-31 16:21:00,
2013-07-31 10:26:00,61.0,44.7,30.20,NW,323,0.0,0.0,55,0.00,,---,0.00,VWS V14.01,2013-07-31 16:26:00,
2013-07-31 10:31:00,61.3,46.9,30.20,NW,323,0.0,1.0,59,0.00,,---,0.00,VWS V14.01,2013-07-31 16:31:00,
2013-07-31 10:36:00,62.2,46.8,30.20,NW,323,1.0,5.0,57,0.00,,---,0.00,VWS V14.01,2013-07-31 16:36:00,
2013-07-31 10:41:00,62.5,46.1,30.20,SW,234,0.0,0.0,55,0.00,,---,0.00,VWS V14.01,2013-07-31 16:41:00,
2013-07-31 10:46:00,63.2,44.8,30.19,SE,130,0.0,2.0,51,0.00,,---,0.00,VWS V14.01,2013-07-31 16:46:00,
2013-07-31 10:51:00,63.6,45.2,30.19,SE,128,0.0,4.0,51,0.00,,---,0.00,VWS V14.01,2013-07-31 16:51:00,
2013-07-31 10:56:00,64.4,47.4,30.18,SSE,157,5.0,6.0,54,0.00,,---,0.00,VWS V14.01,2013-07-31 16:56:00,
2013-07-31 11:01:00,64.7,47.7,30.19,SSE,149,2.0,5.0,54,0.00,,---,0.00,VWS V14.01,2013-07-31 17:01:00,
2013-07-31 11:06:00,65.3,49.7,30.18,SE,134,5.0,7.0,57,0.00,,---,0.00,VWS V14.01,2013-07-31 17:06:00,
2013-07-31 11:11:00,65.7,46.6,30.18,SE,146,5.0,6.0,50,0.00,,---,0.00,VWS V14.01,2013-07-31 17:11:00,
2013-07-31 11:16:00,65.9,46.8,30.18,SE,143,4.0,8.0,50,0.00,,---,0.00,VWS V14.01,2013-07-31 17:16:00,
2013-07-31 11:21:00,66.3,47.1,30.17,SSE,153,5.0,8.0,50,0.00,,---,0.00,VWS V14.01,2013-07-31 17:21:00,
2013-07-31 11:26:00,66.8,48.1,30.17,SSE,159,6.0,7.0,51,0.00,,---,0.00,VWS V14.01,2013-07-31 17:26:00,
2013-07-31 11:31:00,67.1,43.9,30.17,SE,130,2.0,6.0,43,0.00,,---,0.00,VWS V14.01,2013-07-31 17:31:00,
2013-07-31 11:36:00,68.1,46.0,30.17,ESE,115,1.0,5.0,45,0.00,,---,0.00,VWS V14.01,2013-07-31 17:36:00,
2013-07-31 11:41:00,68.1,40.9,30.16,East,100,0.0,5.0,37,0.00,,---,0.00,VWS V14.01,2013-07-31 17:41:00,
2013-07-31 11:46:00,68.9,41.6,30.16,SE,137,6.0,6.0,37,0.00,,---,0.00,VWS V14.01,2013-07-31 17:46:00,
2013-07-31 11:51:00,69.1,41.0,30.16,SSE,165,5.0,5.0,36,0.00,,---,0.00,VWS V14.01,2013-07-31 17:51:00,
2013-07-31 11:56:00,69.6,44.9,30.16,SE,126,5.0,5.0,41,0.00,,---,0.00,VWS V14.01,2013-07-31 17:56:00,
2013-07-31 12:01:00,70.1,44.0,30.16,East,92,1.0,5.0,39,0.00,,---,0.00,VWS V14.01,2013-07-31 18:01:00,
2013-07-31 12:06:00,69.9,41.8,30.15,ESE,109,0.0,1.0,36,0.00,,---,0.00,VWS V14.01,2013-07-31 18:06:00,
2013-07-31 12:11:00,69.9,39.5,30.16,ESE,103,3.0,3.0,33,0.00,,---,0.00,VWS V14.01,2013-07-31 18:11:00,
2013-07-31 12:17:00,70.0,42.6,30.15,SE,144,0.0,1.0,37,0.00,,---,0.00,VWS V14.01,2013-07-31 18:17:00,
2013-07-31 12:22:00,71.0,39.7,30.15,SSW,196,7.0,8.0,32,0.00,,---,0.00,VWS V14.01,2013-07-31 18:22:00,
2013-07-31 12:27:00,70.8,39.5,30.15,SSW,195,3.0,3.0,32,0.00,,---,0.00,VWS V14.01,2013-07-31 18:27:00,
2013-07-31 12:32:00,71.0,42.0,30.15,SE,138,9.0,11.0,35,0.00,,---,0.00,VWS V14.01,2013-07-31 18:32:00,
2013-07-31 12:37:00,70.6,40.9,30.14,SSE,150,6.0,8.0,34,0.00,,---,0.00,VWS V14.01,2013-07-31 18:37:00,
2013-07-31 12:42:00,71.1,45.6,30.14,SE,144,8.0,8.0,40,0.00,,---,0.00,VWS V14.01,2013-07-31 18:42:00,
2013-07-31 12:47:00,71.4,40.0,30.14,SSW,202,6.0,6.0,32,0.00,,---,0.00,VWS V14.01,2013-07-31 18:47:00,
2013-07-31 12:52:00,71.4,44.5,30.14,SSE,167,7.0,7.0,38,0.00,,---,0.00,VWS V14.01,2013-07-31 18:52:00,
2013-07-31 12:57:00,71.2,42.2,30.13,SSW,204,4.0,6.0,35,0.00,,---,0.00,VWS V14.01,2013-07-31 18:57:00,
2013-07-31 13:02:00,70.9,41.9,30.13,SW,217,7.0,9.0,35,0.00,,---,0.00,VWS V14.01,2013-07-31 19:02:00,
2013-07-31 13:07:00,70.6,42.4,30.13,SSE,158,5.0,7.0,36,0.00,,---,0.00,VWS V14.01,2013-07-31 19:07:00,
2013-07-31 13:12:00,70.6,42.4,30.13,ESE,114,1.0,2.0,36,0.00,,---,0.00,VWS V14.01,2013-07-31 19:12:00,
2013-07-31 13:17:00,70.6,45.1,30.12,SSE,166,1.0,1.0,40,0.00,,---,0.00,VWS V14.01,2013-07-31 19:17:00,
2013-07-31 13:22:00,71.2,44.3,30.12,South,186,4.0,6.0,38,0.00,,---,0.00,VWS V14.01,2013-07-31 19:22:00,
2013-07-31 13:27:00,70.8,44.6,30.12,South,175,5.0,8.0,39,0.00,,---,0.00,VWS V14.01,2013-07-31 19:27:00,
2013-07-31 13:32:00,70.0,43.9,30.12,South,174,3.0,4.0,39,0.00,,---,0.00,VWS V14.01,2013-07-31 19:32:00,
2013-07-31 13:37:00,69.6,42.9,30.12,SE,132,2.0,3.0,38,0.00,,---,0.00,VWS V14.01,2013-07-31 19:37:00,
2013-07-31 13:42:00,69.6,44.9,30.12,SE,132,2.0,3.0,41,0.00,,---,0.00,VWS V14.01,2013-07-31 19:42:00,
2013-07-31 13:47:00,69.6,38.5,30.12,SSE,148,0.0,2.0,32,0.00,,---,0.00,VWS V14.01,2013-07-31 19:47:00,
2013-07-31 13:52:00,69.4,42.7,30.12,SSE,148,0.0,3.0,38,0.00,,---,0.00,VWS V14.01,2013-07-31 19:52:00,
2013-07-31 13:57:00,69.3,40.5,30.12,SSE,148,0.0,0.0,35,0.00,,---,0.00,VWS V14.01,2013-07-31 19:57:00,
2013-07-31 14:02:00,69.3,45.9,30.11,SSE,148,0.0,0.0,43,0.00,,---,0.00,VWS V14.01,2013-07-31 20:02:00,
2013-07-31 14:07:00,69.1,46.9,30.11,SSE,148,0.0,0.0,45,0.00,,---,0.00,VWS V14.01,2013-07-31 20:07:00,
2013-07-31 14:12:00,69.1,45.7,30.11,SSE,148,2.0,2.0,43,0.00,,---,0.00,VWS V14.01,2013-07-31 20:12:00,
2013-07-31 14:17:00,69.1,42.5,30.11,ENE,69,5.0,7.0,38,0.00,,---,0.00,VWS V14.01,2013-07-31 20:17:00,
2013-07-31 14:22:00,69.7,46.8,30.11,ENE,69,0.0,5.0,44,0.00,,---,0.00,VWS V14.01,2013-07-31 20:22:00,
2013-07-31 14:27:00,71.0,38.9,30.10,East,98,1.0,3.0,31,0.00,,---,0.00,VWS V14.01,2013-07-31 20:27:00,
2013-07-31 14:32:00,70.8,40.3,30.10,ENE,63,8.0,8.0,33,0.00,,---,0.00,VWS V14.01,2013-07-31 20:32:00,
2013-07-31 14:38:00,70.4,38.3,30.10,ENE,63,0.0,0.0,31,0.00,,---,0.00,VWS V14.01,2013-07-31 20:38:00,
2013-07-31 14:43:00,70.7,40.2,30.10,ENE,63,2.0,3.0,33,0.00,,---,0.00,VWS V14.01,2013-07-31 20:43:00,
2013-07-31 14:48:00,70.7,41.0,30.10,ENE,69,7.0,7.0,34,0.00,,---,0.00,VWS V14.01,2013-07-31 20:48:00,
2013-07-31 14:53:00,70.6,42.4,30.10,ENE,69,2.0,4.0,36,0.00,,---,0.00,VWS V14.01,2013-07-31 20:53:00,
2013-07-31 14:58:00,70.3,38.3,30.10,ENE,69,1.0,2.0,31,0.00,,---,0.00,VWS V14.01,2013-07-31 20:58:00,
2013-07-31 15:03:00,70.6,43.8,30.09,ENE,69,0.0,0.0,38,0.00,,---,0.00,VWS V14.01,2013-07-31 21:03:00,
2013-07-31 15:08:00,70.7,42.5,30.09,ENE,69,3.0,3.0,36,0.00,,---,0.00,VWS V14.01,2013-07-31 21:08:00,
2013-07-31 15:13:00,70.6,43.8,30.09,NNE,19,3.0,4.0,38,0.00,,---,0.00,VWS V14.01,2013-07-31 21:13:00,
2013-07-31 15:18:00,70.5,42.3,30.08,North,355,6.0,8.0,36,0.00,,---,0.00,VWS V14.01,2013-07-31 21:18:00,
2013-07-31 15:23:00,70.4,39.2,30.09,North,355,0.0,2.0,32,0.00,,---,0.00,VWS V14.01,2013-07-31 21:23:00,
2013-07-31 15:28:00,71.5,43.9,30.09,WNW,296,0.0,4.0,37,0.00,,---,0.00,VWS V14.01,2013-07-31 21:28:00,
2013-07-31 15:33:00,72.7,44.2,30.08,WSW,237,4.0,6.0,36,0.00,,---,0.00,VWS V14.01,2013-07-31 21:33:00,
2013-07-31 15:38:00,73.4,41.0,30.08,SSW,207,10.0,14.0,31,0.00,,---,0.00,VWS V14.01,2013-07-31 21:38:00,
2013-07-31 15:43:00,73.3,40.9,30.08,SSW,209,8.0,11.0,31,0.00,,---,0.00,VWS V14.01,2013-07-31 21:43:00,
2013-07-31 15:48:00,73.2,42.4,30.08,SSE,162,5.0,7.0,33,0.00,,---,0.00,VWS V14.01,2013-07-31 21:48:00,
2013-07-31 15:53:00,73.0,38.0,30.07,South,169,1.0,3.0,28,0.00,,---,0.00,VWS V14.01,2013-07-31 21:53:00,
2013-07-31 15:58:00,72.2,39.9,30.07,South,169,0.0,0.0,31,0.00,,---,0.00,VWS V14.01,2013-07-31 21:58:00,
2013-07-31 16:03:00,73.5,38.4,30.07,SW,219,2.0,2.0,28,0.00,,---,0.00,VWS V14.01,2013-07-31 22:03:00,
2013-07-31 16:08:00,73.9,39.7,30.07,WSW,254,2.0,6.0,29,0.00,,---,0.00,VWS V14.01,2013-07-31 22:08:00,
2013-07-31 16:13:00,74.0,37.9,30.06,SSW,205,13.0,13.0,27,0.00,,---,0.00,VWS V14.01,2013-07-31 22:13:00,
2013-07-31 16:18:00,73.7,42.0,30.07,SW,230,7.0,9.0,32,0.00,,---,0.00,VWS V14.01,2013-07-31 22:18:00,
2013-07-31 16:23:00,73.9,40.5,30.06,SW,224,11.0,12.0,30,0.00,,---,0.00,VWS V14.01,2013-07-31 22:23:00,
2013-07-31 16:28:00,73.7,39.5,30.06,SE,136,3.0,5.0,29,0.00,,---,0.00,VWS V14.01,2013-07-31 22:28:00,
2013-07-31 16:33:00,74.1,39.8,30.05,WSW,255,7.0,10.0,29,0.00,,---,0.00,VWS V14.01,2013-07-31 22:33:00,
2013-07-31 16:38:00,74.2,37.1,30.05,SSW,210,8.0,9.0,26,0.00,,---,0.00,VWS V14.01,2013-07-31 22:38:00,
2013-07-31 16:43:00,73.9,39.7,30.05,SSW,192,11.0,11.0,29,0.00,,---,0.00,VWS V14.01,2013-07-31 22:43:00,
2013-07-31 16:48:00,73.4,39.2,30.05,WSW,255,5.0,6.0,29,0.00,,---,0.00,VWS V14.01,2013-07-31 22:48:00,
2013-07-31 16:53:00,73.2,43.9,30.05,North,360,11.0,11.0,35,0.00,,---,0.00,VWS V14.01,2013-07-31 22:53:00,
2013-07-31 16:58:00,73.1,41.5,30.05,WSW,240,5.0,6.0,32,0.00,,---,0.00,VWS V14.01,2013-07-31 22:58:00,
2013-07-31 17:03:00,73.0,41.4,30.04,SW,219,4.0,4.0,32,0.00,,---,0.00,VWS V14.01,2013-07-31 23:03:00,
2013-07-31 17:08:00,72.9,37.9,30.04,WSW,246,11.0,12.0,28,0.00,,---,0.00,VWS V14.01,2013-07-31 23:08:00,
2013-07-31 17:13:00,72.8,39.6,30.04,WSW,252,6.0,6.0,30,0.00,,---,0.00,VWS V14.01,2013-07-31 23:13:00,
2013-07-31 17:18:00,72.9,37.0,30.04,WSW,245,0.0,2.0,27,0.00,,---,0.00,VWS V14.01,2013-07-31 23:18:00,
2013-07-31 17:23:00,72.8,36.9,30.04,West,260,10.0,10.0,27,0.00,,---,0.00,VWS V14.01,2013-07-31 23:23:00,
2013-07-31 17:28:00,72.4,39.2,30.04,West,262,4.0,5.0,30,0.00,,---,0.00,VWS V14.01,2013-07-31 23:28:00,
2013-07-31 17:33:00,72.5,40.2,30.04,WSW,254,7.0,7.0,31,0.00,,---,0.00,VWS V14.01,2013-07-31 23:33:00,
2013-07-31 17:38:00,72.6,42.7,30.03,WSW,254,3.0,3.0,34,0.00,,---,0.00,VWS V14.01,2013-07-31 23:38:00,
2013-07-31 17:43:00,72.6,41.1,30.03,WSW,254,5.0,5.0,32,0.00,,---,0.00,VWS V14.01,2013-07-31 23:43:00,
2013-07-31 17:48:00,72.5,38.5,30.03,West,269,4.0,5.0,29,0.00,,---,0.00,VWS V14.01,2013-07-31 23:48:00,
2013-07-31 17:53:00,72.0,40.6,30.03,NW,309,6.0,8.0,32,0.00,,---,0.00,VWS V14.01,2013-07-31 23:53:00,
2013-07-31 17:58:00,71.2,44.3,30.03,NNW,332,6.0,7.0,38,0.00,,---,0.00,VWS V14.01,2013-07-31 23:58:00,
2013-07-31 18:04:00,70.7,40.2,30.03,NW,304,6.0,8.0,33,0.00,,---,0.00,VWS V14.01,2013-08-01 00:04:00,
2013-07-31 18:09:00,70.9,41.9,30.03,WNW,300,6.0,7.0,35,0.00,,---,0.00,VWS V14.01,2013-08-01 00:09:00,
2013-07-31 18:14:00,71.2,40.7,30.03,West,279,7.0,7.0,33,0.00,,---,0.00,VWS V14.01,2013-08-01 00:14:00,
2013-07-31 18:19:00,71.5,42.4,30.02,West,271,5.0,5.0,35,0.00,,---,0.00,VWS V14.01,2013-08-01 00:19:00,
2013-07-31 18:24:00,71.9,39.7,30.02,West,269,4.0,6.0,31,0.00,,---,0.00,VWS V14.01,2013-08-01 00:24:00,
2013-07-31 18:29:00,72.1,40.7,30.02,West,269,10.0,10.0,32,0.00,,---,0.00,VWS V14.01,2013-08-01 00:29:00,
2013-07-31 18:34:00,71.9,41.3,30.02,WNW,294,4.0,5.0,33,0.00,,---,0.00,VWS V14.01,2013-08-01 00:34:00,
2013-07-31 18:39:00,71.6,40.2,30.02,WNW,295,5.0,5.0,32,0.00,,---,0.00,VWS V14.01,2013-08-01 00:39:00,
2013-07-31 18:44:00,71.5,40.1,30.02,WNW,296,4.0,4.0,32,0.00,,---,0.00,VWS V14.01,2013-08-01 00:44:00,
2013-07-31 18:49:00,71.6,40.2,30.02,WNW,300,6.0,6.0,32,0.00,,---,0.00,VWS V14.01,2013-08-01 00:49:00,
2013-07-31 18:54:00,71.6,39.4,30.02,NW,304,7.0,7.0,31,0.00,,---,0.00,VWS V14.01,2013-08-01 00:54:00,
2013-07-31 18:59:00,71.4,40.0,30.02,NW,307,5.0,5.0,32,0.00,,---,0.00,VWS V14.01,2013-08-01 00:59:00,
2013-07-31 19:04:00,71.3,35.6,30.02,NW,307,0.0,4.0,27,0.00,,---,0.00,VWS V14.01,2013-08-01 01:04:00,
2013-07-31 19:09:00,71.2,42.2,30.02,NW,307,1.0,1.0,35,0.00,,---,0.00,VWS V14.01,2013-08-01 01:09:00,
2013-07-31 19:14:00,71.1,39.0,30.02,NW,307,3.0,3.0,31,0.00,,---,0.00,VWS V14.01,2013-08-01 01:14:00,
2013-07-31 19:19:00,70.9,44.7,30.02,NW,307,1.0,2.0,39,0.00,,---,0.00,VWS V14.01,2013-08-01 01:19:00,
2013-07-31 19:24:00,70.1,45.3,30.02,NW,307,0.0,0.0,41,0.00,,---,0.00,VWS V14.01,2013-08-01 01:24:00,
2013-07-31 19:29:00,68.9,45.5,30.02,NW,307,5.0,5.0,43,0.00,,---,0.00,VWS V14.01,2013-08-01 01:29:00,
2013-07-31 19:34:00,66.5,43.9,30.02,NW,308,5.0,6.0,44,0.00,,---,0.00,VWS V14.01,2013-08-01 01:34:00,
2013-07-31 19:39:00,64.9,43.1,30.02,NW,309,6.0,6.0,45,0.00,,---,0.00,VWS V14.01,2013-08-01 01:39:00,
2013-07-31 19:44:00,63.7,42.5,30.02,NW,309,6.0,7.0,46,0.00,,---,0.00,VWS V14.01,2013-08-01 01:44:00,
2013-07-31 19:49:00,62.9,43.5,30.02,NW,310,0.0,0.0,49,0.00,,---,0.00,VWS V14.01,2013-08-01 01:49:00,
2013-07-31 19:54:00,62.3,41.8,30.02,NW,310,0.0,0.0,47,0.00,,---,0.00,VWS V14.01,2013-08-01 01:54:00,
2013-07-31 19:59:00,62.1,42.7,30.03,NW,309,0.0,0.0,49,0.00,,---,0.00,VWS V14.01,2013-08-01 01:59:00,
2013-07-31 20:04:00,61.8,43.0,30.02,NW,309,1.0,2.0,50,0.00,,---,0.00,VWS V14.01,2013-08-01 02:04:00,
2013-07-31 20:09:00,61.4,42.1,30.02,NW,310,6.0,8.0,49,0.00,,---,0.00,VWS V14.01,2013-08-01 02:09:00,
2013-07-31 20:14:00,60.5,43.3,30.02,NW,310,8.0,8.0,53,0.00,,---,0.00,VWS V14.01,2013-08-01 02:14:00,
2013-07-31 20:19:00,59.9,42.7,30.03,NW,306,5.0,6.0,53,0.00,,---,0.00,VWS V14.01,2013-08-01 02:19:00,
2013-07-31 20:24:00,59.0,43.3,30.03,NW,315,6.0,10.0,56,0.00,,---,0.00,VWS V14.01,2013-08-01 02:24:00,
2013-07-31 20:29:00,58.0,43.3,30.03,NW,315,5.0,5.0,58,0.00,,---,0.00,VWS V14.01,2013-08-01 02:29:00,
2013-07-31 20:34:00,57.4,43.2,30.03,NW,315,6.0,7.0,59,0.00,,---,0.00,VWS V14.01,2013-08-01 02:34:00,
2013-07-31 20:39:00,56.8,43.1,30.03,NW,318,8.0,8.0,60,0.00,,---,0.00,VWS V14.01,2013-08-01 02:39:00,
2013-07-31 20:44:00,56.3,42.6,30.03,NW,319,2.0,4.0,60,0.00,,---,0.00,VWS V14.01,2013-08-01 02:44:00,
2013-07-31 20:49:00,56.2,41.6,30.03,NW,319,3.0,3.0,58,0.00,,---,0.00,VWS V14.01,2013-08-01 02:49:00,
2013-07-31 20:54:00,56.4,40.9,30.04,NW,319,4.0,5.0,56,0.00,,---,0.00,VWS V14.01,2013-08-01 02:54:00,
2013-07-31 20:59:00,56.4,41.8,30.04,NW,318,5.0,5.0,58,0.00,,---,0.00,VWS V14.01,2013-08-01 02:59:00,
2013-07-31 21:04:00,56.2,40.7,30.04,NW,318,1.0,2.0,56,0.00,,---,0.00,VWS V14.01,2013-08-01 03:04:00,
2013-07-31 21:09:00,56.2,40.3,30.04,NW,318,0.0,0.0,55,0.00,,---,0.00,VWS V14.01,2013-08-01 03:09:00,
2013-07-31 21:14:00,56.1,40.6,30.04,NW,318,0.0,0.0,56,0.00,,---,0.00,VWS V14.01,2013-08-01 03:14:00,
2013-07-31 21:20:00,55.8,41.7,30.05,NW,318,3.0,3.0,59,0.00,,---,0.00,VWS V14.01,2013-08-01 03:20:00,
2013-07-31 21:25:00,54.8,40.8,30.05,NW,318,5.0,6.0,59,0.00,,---,0.00,VWS V14.01,2013-08-01 03:25:00,
2013-07-31 21:30:00,54.0,40.4,30.05,NNW,346,7.0,9.0,60,0.00,,---,0.00,VWS V14.01,2013-08-01 03:30:00,
2013-07-31 21:35:00,53.6,40.5,30.06,NNW,341,0.0,3.0,61,0.00,,---,0.00,VWS V14.01,2013-08-01 03:35:00,
2013-07-31 21:40:00,53.5,40.4,30.06,NNW,342,3.0,5.0,61,0.00,,---,0.00,VWS V14.01,2013-08-01 03:40:00,
2013-07-31 21:45:00,53.7,40.2,30.06,NNW,342,7.0,9.0,60,0.00,,---,0.00,VWS V14.01,2013-08-01 03:45:00,
2013-07-31 21:50:00,53.6,39.2,30.05,NNW,329,7.0,10.0,58,0.00,,---,0.00,VWS V14.01,2013-08-01 03:50:00,
2013-07-31 21:55:00,53.8,39.8,30.06,NW,319,10.0,11.0,59,0.00,,---,0.00,VWS V14.01,2013-08-01 03:55:00,
2013-07-31 22:00:00,53.9,39.5,30.06,NW,316,9.0,12.0,58,0.00,,---,0.00,VWS V14.01,2013-08-01 04:00:00,
2013-07-31 22:01:00,53.9,39.0,30.06,NW,318,5.0,8.0,57,0.00,,---,0.00,VWS V14.01,2013-08-01 04:01:00,
2013-07-31 22:02:00,53.9,39.0,30.06,NW,318,0.0,4.0,57,0.00,,---,0.00,VWS V14.01,2013-08-01 04:02:00,
2013-07-31 22:07:00,54.1,39.7,30.06,NW,318,0.0,0.0,58,0.00,,---,0.00,VWS V14.01,2013-08-01 04:07:00,
2013-07-31 22:12:00,54.0,39.6,30.06,NW,318,0.0,1.0,58,0.00,,---,0.00,VWS V14.01,2013-08-01 04:12:00,
2013-07-31 22:17:00,54.0,39.1,30.06,NW,318,0.0,0.0,57,0.00,,---,0.00,VWS V14.01,2013-08-01 04:17:00,
2013-07-31 22:22:00,54.0,40.0,30.06,NW,318,2.0,4.0,59,0.00,,---,0.00,VWS V14.01,2013-08-01 04:22:00,
2013-07-31 22:27:00,53.5,40.0,30.06,NW,318,0.0,0.0,60,0.00,,---,0.00,VWS V14.01,2013-08-01 04:27:00,
2013-07-31 22:32:00,53.0,39.5,30.06,NW,318,5.0,5.0,60,0.00,,---,0.00,VWS V14.01,2013-08-01 04:32:00,
2013-07-31 22:37:00,52.7,39.6,30.06,NW,318,6.0,7.0,61,0.00,,---,0.00,VWS V14.01,2013-08-01 04:37:00,
2013-07-31 22:42:00,52.0,39.8,30.06,NW,318,6.0,7.0,63,0.00,,---,0.00,VWS V14.01,2013-08-01 04:42:00,
2013-07-31 22:47:00,51.3,39.5,30.05,NW,319,9.0,9.0,64,0.00,,---,0.00,VWS V14.01,2013-08-01 04:47:00,
2013-07-31 22:52:00,50.8,39.9,30.06,NW,322,7.0,8.0,66,0.00,,---,0.00,VWS V14.01,2013-08-01 04:52:00,
2013-07-31 22:57:00,50.6,40.1,30.06,NW,321,0.0,1.0,67,0.00,,---,0.00,VWS V14.01,2013-08-01 04:57:00,
2013-07-31 23:02:00,50.4,39.9,30.06,NW,321,0.0,0.0,67,0.00,,---,0.00,VWS V14.01,2013-08-01 05:02:00,
2013-07-31 23:07:00,50.4,39.9,30.06,NW,321,0.0,0.0,67,0.00,,---,0.00,VWS V14.01,2013-08-01 05:07:00,
2013-07-31 23:12:00,50.4,40.2,30.05,NW,321,5.0,5.0,68,0.00,,---,0.00,VWS V14.01,2013-08-01 05:12:00,
2013-07-31 23:17:00,50.0,39.9,30.05,NW,321,3.0,3.0,68,0.00,,---,0.00,VWS V14.01,2013-08-01 05:17:00,
2013-07-31 23:22:00,49.7,39.6,30.05,NW,325,7.0,9.0,68,0.00,,---,0.00,VWS V14.01,2013-08-01 05:22:00,
2013-07-31 23:27:00,49.2,39.5,30.06,NNW,328,4.0,6.0,69,0.00,,---,0.00,VWS V14.01,2013-08-01 05:27:00,
2013-07-31 23:33:00,48.8,39.8,30.06,NNW,328,2.0,4.0,71,0.00,,---,0.00,VWS V14.01,2013-08-01 05:33:00,
2013-07-31 23:38:00,48.7,39.7,30.06,NNW,328,3.0,3.0,71,0.00,,---,0.00,VWS V14.01,2013-08-01 05:38:00,
2013-07-31 23:43:00,48.2,39.2,30.06,NNW,328,5.0,6.0,71,0.00,,---,0.00,VWS V14.01,2013-08-01 05:43:00,
2013-07-31 23:48:00,47.9,39.0,30.06,NNW,328,4.0,6.0,71,0.00,,---,0.00,VWS V14.01,2013-08-01 05:48:00,
2013-07-31 23:53:00,47.8,39.2,30.06,NNW,328,5.0,5.0,72,0.00,,---,0.00,VWS V14.01,2013-08-01 05:53:00,
2013-07-31 23:58:00,47.7,39.5,30.06,NNW,328,6.0,9.0,73,0.00,,---,0.00,VWS V14.01,2013-08-01 05:58:00,